Time;durP1;ratioP1;P1;durP2;ratioP2;P2;SDS_P1;SDS_P2;PMS_P1;PMS_P2;Temp;Humidity;BMP_temperature;BMP_pressure;BME280_temperature;BME280_humidity;BME280_pressure;Samples;Min_cycle;Max_cycle;Signal;HPM_P1;HPM_P2
2022/12/18 00:01:21;;;;;;;17.87;12.20;;;;;;;2.76;68.11;100753.48;1699268;81;21602;-73
2022/12/18 00:03:48;;;;;;;17.90;11.73;;;;;;;2.74;68.07;100754.70;1697629;82;21142;-73
2022/12/18 00:06:15;;;;;;;17.17;11.53;;;;;;;2.82;68.15;100757.12;1712875;82;21007;-72
2022/12/18 00:08:43;;;;;;;17.80;11.57;;;;;;;2.88;68.17;100761.61;1702583;82;21057;-72
2022/12/18 00:11:16;;;;;;;16.45;10.40;;;;;;;2.92;68.05;100766.78;1708217;82;21069;-72
2022/12/18 00:13:44;;;;;;;17.57;11.03;;;;;;;2.95;67.85;100761.10;1727937;82;21027;-74
2022/12/18 00:16:14;;;;;;;15.48;10.45;;;;;;;2.90;67.38;100760.10;1704222;84;21610;-71
2022/12/18 00:18:41;;;;;;;18.23;11.28;;;;;;;2.86;67.21;100772.85;1714807;83;21130;-71
2022/12/18 00:21:09;;;;;;;16.32;10.70;;;;;;;2.85;67.00;100763.33;1709675;82;20964;-74
2022/12/18 00:23:36;;;;;;;16.17;10.98;;;;;;;2.85;66.96;100773.06;1703122;82;21065;-70
2022/12/18 00:26:08;;;;;;;17.62;11.53;;;;;;;2.86;66.84;100779.96;1679473;82;21034;-73
2022/12/18 00:28:35;;;;;;;19.17;12.60;;;;;;;2.92;66.60;100772.05;1694326;82;21130;-72
2022/12/18 00:31:11;;;;;;;17.15;11.60;;;;;;;2.98;66.31;100776.53;1697800;82;21026;-73
2022/12/18 00:33:38;;;;;;;18.40;11.88;;;;;;;2.99;66.05;100774.70;1675675;82;21643;-72
2022/12/18 00:36:07;;;;;;;17.17;11.30;;;;;;;2.99;65.88;100801.09;1714236;82;21061;-73
2022/12/18 00:38:34;;;;;;;18.40;11.90;;;;;;;2.98;65.60;100788.41;1716382;82;21073;-72
2022/12/18 00:41:00;;;;;;;18.80;11.70;;;;;;;2.95;65.42;100791.44;1685278;82;21107;-75
2022/12/18 00:43:27;;;;;;;18.30;11.97;;;;;;;2.95;65.34;100805.14;1722693;82;21111;-74
2022/12/18 00:45:53;;;;;;;17.52;10.90;;;;;;;2.95;65.17;100798.55;1688238;82;21531;-74
2022/12/18 00:48:20;;;;;;;16.48;11.10;;;;;;;2.82;65.10;100799.34;1678912;82;21132;-73
2022/12/18 00:50:49;;;;;;;17.12;11.40;;;;;;;2.77;65.08;100801.27;1696728;82;21070;-73
2022/12/18 00:53:15;;;;;;;18.75;11.25;;;;;;;2.65;65.10;100807.31;1696918;82;21213;-73
2022/12/18 00:55:42;;;;;;;16.35;10.65;;;;;;;2.67;65.14;100809.26;1679126;82;21117;-72
2022/12/18 00:58:10;;;;;;;15.58;8.90;;;;;;;2.68;64.82;100810.36;1701630;84;21076;-75
2022/12/18 01:00:36;;;;;;;16.57;11.05;;;;;;;2.58;64.54;100819.97;1713985;82;21072;-73
2022/12/18 01:03:03;;;;;;;16.52;11.10;;;;;;;2.56;64.40;100813.26;1684358;82;21111;-73
2022/12/18 01:05:30;;;;;;;18.05;11.18;;;;;;;2.58;64.50;100817.33;1692033;82;21300;-72
2022/12/18 01:07:57;;;;;;;17.48;11.05;;;;;;;2.53;64.96;100822.88;1700120;82;21522;-74
2022/12/18 01:10:24;;;;;;;16.75;10.15;;;;;;;2.58;64.92;100827.88;1698078;82;21124;-73
2022/12/18 01:12:51;;;;;;;20.92;13.10;;;;;;;2.55;64.75;100841.45;1698506;82;21014;-73
2022/12/18 01:15:19;;;;;;;21.80;13.53;;;;;;;2.50;64.90;100842.56;1699064;82;21033;-75
2022/12/18 01:17:45;;;;;;;19.82;13.25;;;;;;;2.48;65.11;100842.45;1699443;82;21157;-73
2022/12/18 01:20:12;;;;;;;18.60;12.78;;;;;;;2.38;65.09;100855.98;1697484;82;21108;-74
2022/12/18 01:22:38;;;;;;;18.32;12.40;;;;;;;2.30;65.21;100868.84;1675938;82;21113;-73
2022/12/18 01:25:08;;;;;;;21.17;13.78;;;;;;;2.22;65.22;100856.31;1689853;82;21136;-73
2022/12/18 01:27:35;;;;;;;23.70;14.40;;;;;;;2.26;65.40;100857.54;1699071;82;21065;-73
2022/12/18 01:30:07;;;;;;;21.02;13.72;;;;;;;2.28;65.43;100863.44;1698177;82;21658;-73
2022/12/18 01:32:33;;;;;;;21.30;12.80;;;;;;;2.29;65.40;100859.79;1701604;84;20954;-71
2022/12/18 01:35:02;;;;;;;23.92;14.45;;;;;;;2.28;65.26;100847.63;1683482;82;21571;-73
2022/12/18 01:37:29;;;;;;;20.10;13.20;;;;;;;2.25;65.32;100861.19;1723056;82;21441;-72
2022/12/18 01:39:56;;;;;;;21.95;13.40;;;;;;;2.31;65.24;100852.00;1695967;82;21591;-72
2022/12/18 01:42:23;;;;;;;22.65;14.30;;;;;;;2.44;65.01;100864.44;1692790;82;21129;-74
2022/12/18 01:45:06;;;;;;;18.65;11.93;;;;;;;2.44;64.67;100915.04;1687055;82;21587;-72
2022/12/18 01:47:45;;;;;;;16.95;11.88;;;;;;;2.44;64.17;100900.03;1673520;85;21077;-72
2022/12/18 01:50:19;;;;;;;18.67;12.07;;;;;;;2.30;64.23;100882.02;1689118;82;21421;-74
2022/12/18 01:52:50;;;;;;;18.75;12.33;;;;;;;2.28;64.27;100884.53;1701336;84;21104;-73
2022/12/18 01:55:19;;;;;;;21.42;13.48;;;;;;;2.38;64.28;100881.55;1679048;82;21114;-73
2022/12/18 01:57:46;;;;;;;21.02;13.90;;;;;;;2.28;64.42;100889.30;1672037;85;21543;-71
2022/12/18 02:00:16;;;;;;;21.20;13.50;;;;;;;2.22;64.55;100890.57;1707911;82;21002;-73
2022/12/18 02:02:44;;;;;;;20.75;12.43;;;;;;;2.18;64.64;100891.97;1695228;82;21065;-71
2022/12/18 02:05:16;;;;;;;20.92;13.20;;;;;;;2.05;64.70;100893.50;1696618;82;21002;-73
2022/12/18 02:08:12;;;;;;;22.07;13.53;;;;;;;2.00;64.88;100891.94;1671896;82;21082;-73
2022/12/18 02:10:48;;;;;;;19.07;12.30;;;;;;;1.94;64.89;100894.05;1689565;82;21010;-72
2022/12/18 02:13:31;;;;;;;23.15;12.00;;;;;;;1.86;64.86;100908.66;1717250;82;21021;-71
2022/12/18 02:16:22;;;;;;;20.48;13.35;;;;;;;1.79;64.98;100911.75;1698430;82;21563;-73
2022/12/18 02:18:52;;;;;;;21.12;13.50;;;;;;;1.82;65.20;100908.23;1699159;82;21080;-73
2022/12/18 02:21:25;;;;;;;22.13;13.10;;;;;;;1.80;65.07;100912.05;1681992;82;21887;-73
2022/12/18 02:24:28;;;;;;;;;;;;;;;1.66;64.93;100907.19;1695204;82;21074;-74
2022/12/18 02:26:58;;;;;;;21.57;13.15;;;;;;;1.53;64.91;100922.36;1695712;82;20244;-73
2022/12/18 02:29:29;;;;;;;23.00;13.98;;;;;;;1.60;64.92;100928.49;1684598;82;21159;-76
2022/12/18 02:32:01;;;;;;;20.68;12.63;;;;;;;1.72;64.85;100924.86;1697100;82;21179;-74
2022/12/18 02:34:31;;;;;;;23.77;14.80;;;;;;;1.75;64.60;100930.27;1691647;82;21114;-75
2022/12/18 02:36:58;;;;;;;19.82;12.45;;;;;;;1.67;64.38;100943.03;1679915;82;20950;-75
2022/12/18 02:39:25;;;;;;;21.20;13.93;;;;;;;1.56;64.75;100938.28;1698513;82;21101;-75
2022/12/18 02:41:58;;;;;;;21.75;13.68;;;;;;;1.53;65.05;100941.29;1681400;82;20989;-75
2022/12/18 02:44:24;;;;;;;22.80;14.00;;;;;;;1.56;64.97;100951.45;1696797;84;21037;-75
2022/12/18 02:46:52;;;;;;;23.38;13.95;;;;;;;1.60;65.19;100948.75;1697832;82;21102;-75
2022/12/18 02:49:40;;;;;;;22.15;12.85;;;;;;;1.57;65.09;100951.25;1701167;82;21033;-74
2022/12/18 02:52:25;;;;;;;23.73;14.80;;;;;;;1.55;64.71;100963.80;1695276;82;21140;-75
2022/12/18 02:55:10;;;;;;;22.45;12.33;;;;;;;1.54;64.61;100959.52;1720873;82;21002;-74
2022/12/18 02:57:52;;;;;;;21.55;13.45;;;;;;;1.55;64.70;100963.80;1705697;82;21002;-76
2022/12/18 03:00:24;;;;;;;18.52;10.95;;;;;;;1.54;64.58;100958.20;1665272;82;21828;-75
2022/12/18 03:03:12;;;;;;;19.32;12.33;;;;;;;1.55;64.48;100974.33;1691461;82;21085;-75
2022/12/18 03:05:45;;;;;;;19.60;12.55;;;;;;;1.55;64.29;100982.23;1691662;82;21552;-73
2022/12/18 03:08:23;;;;;;;;;;;;;;;1.54;64.16;100980.58;1700816;82;21014;-75
2022/12/18 03:10:56;;;;;;;18.90;12.70;;;;;;;1.56;63.92;100972.00;1670014;84;20577;-76
2022/12/18 03:13:51;;;;;;;21.00;11.88;;;;;;;1.61;63.62;100988.07;1683147;84;21166;-77
2022/12/18 03:16:25;;;;;;;18.62;12.23;;;;;;;1.43;64.00;101021.88;1701170;82;20967;-75
2022/12/18 03:19:14;;;;;;;21.27;12.78;;;;;;;1.44;64.23;101014.28;1712450;82;21098;-75
2022/12/18 03:21:49;;;;;;;20.23;12.18;;;;;;;1.43;64.25;101005.27;1697939;82;21096;-75
2022/12/18 03:24:16;;;;;;;19.45;12.25;;;;;;;1.45;64.07;100997.98;1732508;81;21537;-75
2022/12/18 03:26:46;;;;;;;18.90;11.68;;;;;;;1.41;64.00;101014.66;1690657;82;21787;-76
2022/12/18 03:29:25;;;;;;;17.95;11.50;;;;;;;1.43;64.09;101011.86;1679807;82;21034;-75
2022/12/18 03:32:00;;;;;;;17.65;11.05;;;;;;;1.45;64.03;101012.47;1696287;82;21047;-74
2022/12/18 03:34:30;;;;;;;17.12;10.53;;;;;;;1.49;64.02;101025.59;1676175;85;20962;-75
2022/12/18 03:36:58;;;;;;;19.33;11.33;;;;;;;1.46;63.59;101038.62;1699987;83;21045;-75
2022/12/18 03:39:25;;;;;;;16.73;10.65;;;;;;;1.44;63.51;101024.81;1686977;82;21105;-76
2022/12/18 03:42:21;;;;;;;18.62;10.98;;;;;;;1.45;63.27;101030.42;1696713;82;21134;-73
2022/12/18 03:45:11;;;;;;;16.05;9.68;;;;;;;1.46;63.09;101052.28;1698342;82;21184;-75
2022/12/18 03:48:07;;;;;;;15.40;9.65;;;;;;;1.44;62.32;101052.45;1704416;82;21806;-75
2022/12/18 03:50:57;;;;;;;15.43;9.33;;;;;;;1.47;62.29;101042.06;1711776;83;20981;-75
2022/12/18 03:53:41;;;;;;;16.67;10.40;;;;;;;1.42;61.32;101035.23;1681750;84;21070;-75
2022/12/18 03:56:08;;;;;;;16.52;9.25;;;;;;;1.43;61.10;101042.12;1670185;84;21078;-75
2022/12/18 03:58:37;;;;;;;15.53;10.00;;;;;;;1.44;60.46;101051.14;1678232;82;21047;-76
2022/12/18 04:01:07;;;;;;;15.23;9.18;;;;;;;1.49;60.33;101046.16;1681129;84;20963;-75
2022/12/18 04:03:35;;;;;;;14.20;9.13;;;;;;;1.41;59.90;101067.30;1620585;85;21029;-76
2022/12/18 04:06:02;;;;;;;14.07;9.10;;;;;;;1.31;59.55;101058.38;1658304;84;21823;-75
2022/12/18 04:08:29;;;;;;;15.18;9.73;;;;;;;1.28;59.60;101061.88;1656922;85;21128;-73
2022/12/18 04:11:04;;;;;;;15.58;9.50;;;;;;;1.29;59.75;101074.86;1688504;82;21564;-74
2022/12/18 04:13:34;;;;;;;15.38;9.33;;;;;;;1.26;59.91;101085.75;1649261;85;21544;-75
2022/12/18 04:16:02;;;;;;;15.20;9.55;;;;;;;1.19;59.92;101077.47;1673010;84;26866;-76
2022/12/18 04:18:29;;;;;;;17.02;10.10;;;;;;;1.21;60.07;101068.87;1692682;82;21638;-76
2022/12/18 04:20:56;;;;;;;16.25;10.60;;;;;;;1.23;60.35;101098.46;1702818;81;21659;-77
2022/12/18 04:23:22;;;;;;;15.20;9.78;;;;;;;1.21;60.24;101092.55;1693366;81;21692;-75
2022/12/18 04:25:49;;;;;;;15.60;9.70;;;;;;;1.22;60.36;101106.02;1656041;85;21052;-75
2022/12/18 16:11:40;;;;;;;11.90;7.70;;;;;;;-0.66;69.33;102138.52;1758145;80;22593;-73
2022/12/18 16:14:26;;;;;;;11.45;6.87;;;;;;;-0.64;68.17;102157.59;1786043;80;21069;-74
2022/12/18 16:16:56;;;;;;;12.00;7.33;;;;;;;-0.63;67.25;102153.98;1780377;80;21168;-73
2022/12/18 16:19:23;;;;;;;11.10;7.10;;;;;;;-0.62;66.35;102164.35;1776440;80;21137;-74
2022/12/18 16:21:51;;;;;;;11.88;6.95;;;;;;;-0.56;66.05;102165.09;1786807;80;20954;-74
2022/12/18 16:24:22;;;;;;;11.20;6.62;;;;;;;-0.52;65.44;102180.06;1772805;80;20985;-73
2022/12/18 16:26:51;;;;;;;10.98;6.72;;;;;;;-0.50;64.93;102172.86;1787870;80;20982;-75
2022/12/18 16:29:18;;;;;;;10.15;6.03;;;;;;;-0.51;64.46;102193.52;1787323;80;21101;-74
2022/12/18 16:31:44;;;;;;;10.78;6.42;;;;;;;-0.54;63.89;102172.31;1759500;80;20954;-73
2022/12/18 16:34:21;;;;;;;10.98;6.30;;;;;;;-0.59;63.70;102198.19;1760878;78;21069;-73
2022/12/18 16:36:48;;;;;;;9.98;6.20;;;;;;;-0.61;63.26;102202.73;1782912;80;20990;-74
2022/12/18 16:39:15;;;;;;;8.48;5.42;;;;;;;-0.60;63.13;102204.87;1788306;80;21017;-74
2022/12/18 16:41:41;;;;;;;9.13;5.95;;;;;;;-0.59;62.94;102210.45;1788827;80;21174;-73
2022/12/18 17:18:52;;;;;;;9.63;5.13;;;;;;;-0.82;60.92;102257.21;1797772;79;22759;-74
2022/12/18 17:21:19;;;;;;;8.40;5.45;;;;;;;-0.90;60.86;102263.13;1763672;80;20964;-75
2022/12/18 17:23:46;;;;;;;10.00;6.17;;;;;;;-0.93;60.94;102259.48;1756933;81;21113;-73
2022/12/18 17:26:13;;;;;;;11.00;7.00;;;;;;;-0.95;61.06;102263.56;1756747;81;21062;-73
2022/12/18 17:28:40;;;;;;;12.78;7.87;;;;;;;-0.93;61.17;102279.64;1762057;80;21664;-73
2022/12/18 17:31:12;;;;;;;18.92;9.63;;;;;;;-0.90;61.37;102275.42;1773243;81;21510;-73
2022/12/18 17:33:38;;;;;;;;;;;;;;;-0.87;61.61;102277.28;1776308;81;21055;-73
2022/12/18 17:36:07;;;;;;;16.48;9.18;;;;;;;-0.86;61.78;102277.62;1758803;80;21775;-74
2022/12/18 17:38:34;;;;;;;14.15;8.30;;;;;;;-0.91;62.01;102286.41;1748448;81;21039;-74
2022/12/18 17:41:05;;;;;;;13.72;8.48;;;;;;;-0.86;62.16;102290.73;1755836;81;20995;-73
2022/12/18 17:43:34;;;;;;;11.33;6.40;;;;;;;-0.85;62.19;102291.59;1731376;81;21081;-73
2022/12/18 17:46:02;;;;;;;9.40;5.78;;;;;;;-0.85;61.84;102332.25;1726133;83;21394;-73
2022/12/18 17:48:29;;;;;;;7.85;5.05;;;;;;;-0.90;61.59;102303.79;1727801;83;21124;-72
2022/12/18 17:51:05;;;;;;;8.03;5.03;;;;;;;-0.98;61.15;102312.84;1727274;83;21011;-72
2022/12/18 17:53:33;;;;;;;8.43;4.83;;;;;;;-1.00;60.90;102320.02;1749464;81;20967;-72
2022/12/18 17:56:00;;;;;;;9.98;5.35;;;;;;;-1.05;60.55;102334.86;1756784;81;21043;-73
2022/12/18 17:58:29;;;;;;;10.95;5.90;;;;;;;-1.09;60.48;102322.14;1737745;81;21486;-74
2022/12/18 18:00:55;;;;;;;9.03;5.00;;;;;;;-1.12;60.62;102317.16;1751899;81;21574;-74
2022/12/18 18:03:23;;;;;;;11.40;6.37;;;;;;;-1.12;60.72;102330.28;1742003;81;21090;-73
2022/12/18 18:05:57;;;;;;;13.93;7.83;;;;;;;-1.16;60.91;102336.28;1760451;80;21081;-74
2022/12/18 18:08:24;;;;;;;12.65;7.10;;;;;;;-1.15;61.16;102356.31;1771057;80;21006;-73
2022/12/18 18:10:51;;;;;;;14.93;8.03;;;;;;;-1.08;61.38;102345.63;1727420;83;21011;-72
2022/12/18 18:16:09;;;;;;;14.10;8.08;;;;;;;-1.05;61.47;102347.15;1745234;81;21074;-72
2022/12/18 18:18:36;;;;;;;14.10;8.00;;;;;;;-1.04;61.51;102345.69;1742431;81;21133;-72
2022/12/18 18:21:05;;;;;;;15.55;8.60;;;;;;;-1.03;61.54;102362.25;1741966;82;21833;-72
2022/12/18 18:23:32;;;;;;;12.82;7.85;;;;;;;-1.00;61.58;102371.16;1724740;82;21063;-74
2022/12/18 18:26:08;;;;;;;13.03;7.65;;;;;;;-1.01;61.58;102373.44;1734054;82;21082;-73
2022/12/18 18:28:37;;;;;;;12.78;7.90;;;;;;;-1.17;61.84;102376.58;1743121;82;21392;-73
2022/12/18 18:31:06;;;;;;;10.65;6.67;;;;;;;-1.19;61.87;102383.26;1727776;82;21074;-73
2022/12/18 18:33:33;;;;;;;12.03;7.10;;;;;;;-1.22;61.90;102386.17;1743789;82;21020;-71
2022/12/18 18:35:59;;;;;;;10.32;6.40;;;;;;;-1.26;61.74;102399.19;1719713;82;20967;-73
2022/12/18 18:38:27;;;;;;;10.95;6.05;;;;;;;-1.28;61.56;102390.64;1714400;83;21173;-72
2022/12/18 18:41:00;;;;;;;10.03;5.47;;;;;;;-1.31;61.29;102397.46;1713940;83;21011;-72
2022/12/18 18:43:28;;;;;;;8.90;5.37;;;;;;;-1.33;61.26;102409.86;1756872;81;21032;-72
2022/12/18 18:45:57;;;;;;;9.20;5.65;;;;;;;-1.39;61.04;102406.94;1759187;81;21055;-73
2022/12/18 18:48:25;;;;;;;9.75;5.85;;;;;;;-1.40;61.19;102416.59;1767030;81;21154;-73
2022/12/18 18:51:00;;;;;;;9.78;6.28;;;;;;;-1.44;61.25;102407.34;1739166;81;21224;-73
2022/12/18 18:53:27;;;;;;;10.55;6.72;;;;;;;-1.45;61.38;102407.84;1732626;82;20987;-71
2022/12/18 18:55:59;;;;;;;12.80;7.78;;;;;;;-1.45;61.43;102418.77;1714182;83;21558;-73
2022/12/18 18:58:26;;;;;;;14.07;8.78;;;;;;;-1.41;61.57;102417.57;1730932;82;21034;-72
2022/12/18 19:00:59;;;;;;;13.00;7.67;;;;;;;-1.38;61.69;102430.41;1744008;82;21050;-70
2022/12/18 19:03:25;;;;;;;13.70;7.60;;;;;;;-1.36;61.74;102429.78;1743701;82;21728;-71
2022/12/18 19:05:58;;;;;;;10.93;6.72;;;;;;;-1.36;61.56;102432.89;1759922;80;21003;-69
2022/12/18 19:08:28;;;;;;;10.63;6.17;;;;;;;-1.34;61.53;102437.53;1738124;82;21028;-70
2022/12/18 19:10:58;;;;;;;11.85;7.25;;;;;;;-1.35;61.41;102438.02;1741853;80;21016;-70
2022/12/18 19:13:28;;;;;;;10.85;6.60;;;;;;;-1.32;61.39;102444.27;1741370;82;20963;-69
2022/12/18 19:16:05;;;;;;;8.55;5.22;;;;;;;-1.31;61.16;102449.89;1740640;82;21867;-69
2022/12/18 19:18:32;;;;;;;9.50;5.60;;;;;;;-1.37;60.93;102468.77;1736731;82;21013;-70
2022/12/18 19:21:02;;;;;;;9.33;5.00;;;;;;;-1.47;60.66;102466.09;1721010;82;21198;-71
2022/12/18 19:23:29;;;;;;;9.65;5.67;;;;;;;-1.54;60.63;102470.20;1740287;82;20952;-71
2022/12/18 19:26:01;;;;;;;9.85;5.92;;;;;;;-1.60;60.66;102477.75;1714303;83;21046;-69
2022/12/18 19:28:29;;;;;;;12.07;6.92;;;;;;;-1.62;60.75;102472.62;1725388;81;21160;-69
2022/12/18 19:31:03;;;;;;;10.60;6.20;;;;;;;-1.62;60.74;102468.70;1734743;82;21699;-71
2022/12/18 19:33:34;;;;;;;10.18;6.20;;;;;;;-1.59;60.67;102471.55;1714560;82;20980;-70
2022/12/18 19:36:10;;;;;;;11.22;6.35;;;;;;;-1.59;60.71;102475.47;1728107;82;21096;-71
2022/12/18 19:38:36;;;;;;;12.90;7.47;;;;;;;-1.58;60.91;102483.22;1744049;82;21061;-71
2022/12/18 19:41:05;;;;;;;12.82;7.40;;;;;;;-1.56;61.13;102491.77;1740563;82;21171;-70
2022/12/18 19:43:35;;;;;;;10.43;6.35;;;;;;;-1.53;61.30;102503.30;1740582;80;20965;-70
2022/12/18 19:46:04;;;;;;;10.35;6.10;;;;;;;-1.49;61.20;102541.87;1759094;81;20929;-71
2022/12/18 19:48:32;;;;;;;10.03;5.67;;;;;;;-1.53;60.79;102529.99;1765573;81;20957;-72
2022/12/18 19:51:13;;;;;;;10.43;6.05;;;;;;;-1.58;60.68;102516.43;1749183;81;20953;-71
2022/12/18 19:53:40;;;;;;;9.48;6.15;;;;;;;-1.59;60.69;102522.64;1730603;82;21251;-70
2022/12/18 19:56:12;;;;;;;11.12;6.87;;;;;;;-1.59;60.79;102521.33;1741089;82;21683;-70
2022/12/18 19:58:39;;;;;;;11.15;6.62;;;;;;;-1.60;61.00;102532.78;1740439;82;20988;-70
2022/12/18 20:01:05;;;;;;;12.68;7.37;;;;;;;-1.58;61.12;102537.39;1722099;82;21581;-70
2022/12/18 20:03:32;;;;;;;12.35;7.53;;;;;;;-1.56;61.24;102539.42;1728729;82;20988;-70
2022/12/18 20:06:26;;;;;;;11.97;7.22;;;;;;;-1.51;61.23;102539.88;1743086;82;21295;-70
2022/12/18 20:08:54;;;;;;;12.13;6.72;;;;;;;-1.49;61.16;102540.56;1714347;82;20948;-70
2022/12/18 20:11:21;;;;;;;9.90;5.78;;;;;;;-1.52;60.90;102545.58;1743060;82;21569;-69
2022/12/18 20:13:48;;;;;;;11.10;6.00;;;;;;;-1.59;60.81;102555.39;1742889;82;20964;-70
2022/12/18 20:16:14;;;;;;;11.18;6.33;;;;;;;-1.67;60.89;102581.76;1728652;82;21023;-70
2022/12/18 20:18:41;;;;;;;11.00;6.33;;;;;;;-1.74;60.90;102561.44;1726959;82;21319;-70
2022/12/18 20:21:08;;;;;;;11.10;6.30;;;;;;;-1.75;61.08;102568.44;1736381;81;21044;-71
2022/12/18 20:23:34;;;;;;;11.28;6.35;;;;;;;-1.78;61.10;102573.11;1726567;82;21008;-70
2022/12/18 20:26:01;;;;;;;9.83;6.05;;;;;;;-1.83;61.13;102582.66;1722172;82;20992;-70
2022/12/18 20:28:29;;;;;;;10.55;6.55;;;;;;;-1.87;61.16;102581.26;1722242;82;21074;-69
2022/12/18 20:31:03;;;;;;;10.23;6.00;;;;;;;-1.85;61.32;102591.11;1729104;82;21289;-71
2022/12/18 20:33:30;;;;;;;9.53;5.55;;;;;;;-1.86;61.31;102576.36;1741121;82;21011;-70
2022/12/18 20:36:01;;;;;;;10.93;6.67;;;;;;;-1.89;61.24;102578.75;1730835;82;21032;-70
